Time;durP1;ratioP1;P1;durP2;ratioP2;P2;SDS_P1;SDS_P2;PMS_P1;PMS_P2;Temp;Humidity;BMP_temperature;BMP_pressure;BME280_temperature;BME280_humidity;BME280_pressure;Samples;Min_cycle;Max_cycle;Signal;HPM_P1;HPM_P2
2021/07/08 00:00:25;;;;;;;10.13;4.53;;;15.80;99.90;;;;;;5051276;28;20109;-60
2021/07/08 00:02:51;;;;;;;8.45;3.50;;;15.80;99.90;;;;;;5055065;28;20021;-62
2021/07/08 00:05:18;;;;;;;17.40;4.13;;;15.80;99.90;;;;;;5017579;28;20039;-62
2021/07/08 00:07:44;;;;;;;10.13;3.72;;;15.80;99.90;;;;;;5032786;28;20021;-60
2021/07/08 00:10:15;;;;;;;11.23;4.22;;;15.70;99.90;;;;;;5044572;28;20098;-61
2021/07/08 00:12:41;;;;;;;13.18;4.28;;;15.70;99.90;;;;;;5051800;28;20507;-61
2021/07/08 00:15:12;;;;;;;11.20;4.18;;;15.70;99.90;;;;;;5055108;28;20048;-62
2021/07/08 00:17:39;;;;;;;11.70;4.45;;;15.60;99.90;;;;;;5053128;28;20023;-63
2021/07/08 00:20:08;;;;;;;7.18;3.63;;;15.60;99.90;;;;;;5050479;28;20021;-61
2021/07/08 00:22:34;;;;;;;11.20;4.22;;;15.60;99.90;;;;;;5053013;28;20504;-62
2021/07/08 00:25:00;;;;;;;8.43;3.90;;;15.60;99.90;;;;;;5033571;28;20163;-61
2021/07/08 00:27:25;;;;;;;8.20;4.18;;;15.50;99.90;;;;;;5049303;28;20029;-62
2021/07/08 00:29:51;;;;;;;11.98;4.00;;;15.50;99.90;;;;;;5050633;28;20025;-60
2021/07/08 00:32:16;;;;;;;8.13;3.47;;;15.40;99.90;;;;;;5034502;28;20508;-59
2021/07/08 00:34:43;;;;;;;5.82;3.72;;;15.40;99.90;;;;;;5050183;28;20508;-60
2021/07/08 00:37:09;;;;;;;5.85;4.30;;;15.40;99.90;;;;;;5050206;28;20024;-60
2021/07/08 00:39:34;;;;;;;8.38;4.00;;;15.30;99.90;;;;;;5022590;28;20032;-61
2021/07/08 00:42:00;;;;;;;8.25;4.13;;;15.30;99.90;;;;;;5056539;28;20029;-62
2021/07/08 00:44:25;;;;;;;9.02;3.92;;;15.30;99.90;;;;;;5054925;28;20028;-63
2021/07/08 00:46:51;;;;;;;12.25;4.20;;;15.30;99.90;;;;;;5038669;28;20025;-61
2021/07/08 00:49:16;;;;;;;10.43;4.22;;;15.30;99.90;;;;;;5054012;28;20486;-60
2021/07/08 00:51:42;;;;;;;12.80;4.40;;;15.30;99.90;;;;;;5050452;28;20682;-60
2021/07/08 00:54:10;;;;;;;11.80;5.03;;;15.20;99.90;;;;;;5038338;28;20017;-61
2021/07/08 00:56:36;;;;;;;8.50;4.13;;;15.30;99.90;;;;;;5058024;28;20028;-62
2021/07/08 00:59:07;;;;;;;9.82;3.92;;;15.20;99.90;;;;;;5058677;28;20547;-62
2021/07/08 01:01:33;;;;;;;32.55;6.53;;;15.20;99.90;;;;;;5050684;28;20071;-61
2021/07/08 01:04:01;;;;;;;11.13;4.80;;;15.10;99.90;;;;;;5058078;28;20041;-61
2021/07/08 01:06:27;;;;;;;12.25;4.13;;;15.10;99.90;;;;;;5049163;28;20029;-61
2021/07/08 01:08:53;;;;;;;10.88;4.80;;;15.10;99.90;;;;;;5049936;28;20071;-60
2021/07/08 01:11:19;;;;;;;8.55;4.15;;;15.10;99.90;;;;;;5056807;28;20060;-61
2021/07/08 01:13:44;;;;;;;9.00;3.95;;;15.10;99.90;;;;;;5046598;28;20064;-61
2021/07/08 01:16:10;;;;;;;8.07;4.50;;;15.00;99.90;;;;;;5057400;28;20025;-61
2021/07/08 01:18:36;;;;;;;11.45;4.82;;;15.00;99.90;;;;;;5035232;28;20066;-60
2021/07/08 01:21:23;;;;;;;11.25;4.30;;;15.00;99.90;;;;;;5059811;28;20044;-61
2021/07/08 01:23:49;;;;;;;10.05;4.15;;;15.00;99.90;;;;;;5063764;28;20021;-61
2021/07/08 01:26:15;;;;;;;8.40;3.92;;;14.90;99.90;;;;;;5042984;28;20095;-60
2021/07/08 01:28:40;;;;;;;6.05;4.22;;;14.90;99.90;;;;;;5050125;28;20112;-61
2021/07/08 01:31:08;;;;;;;5.63;4.22;;;15.00;99.90;;;;;;5052274;28;20033;-61
2021/07/08 01:33:34;;;;;;;10.30;4.63;;;14.90;99.90;;;;;;5047692;28;20060;-60
2021/07/08 01:35:59;;;;;;;9.95;4.40;;;14.90;99.90;;;;;;5045140;28;20124;-60
2021/07/08 01:38:26;;;;;;;10.70;3.95;;;14.90;99.90;;;;;;5035620;28;20112;-60
2021/07/08 01:40:52;;;;;;;12.13;4.13;;;15.00;99.90;;;;;;5051940;28;20029;-60
2021/07/08 01:43:18;;;;;;;14.32;5.63;;;15.00;99.90;;;;;;5060299;28;20065;-59
2021/07/08 01:45:44;;;;;;;12.23;4.30;;;14.90;99.90;;;;;;5057780;28;20059;-61
2021/07/08 01:48:10;;;;;;;5.78;4.05;;;14.90;99.90;;;;;;5055309;28;20088;-61
2021/07/08 01:50:36;;;;;;;7.97;3.95;;;14.90;99.90;;;;;;5054945;28;20036;-60
2021/07/08 01:53:02;;;;;;;8.80;4.03;;;14.90;99.90;;;;;;5050007;28;20495;-60
2021/07/08 01:55:28;;;;;;;13.23;4.18;;;14.90;99.90;;;;;;5031415;28;20627;-58
2021/07/08 01:57:56;;;;;;;9.52;4.07;;;14.90;99.90;;;;;;5049073;28;20548;-61
2021/07/08 02:00:23;;;;;;;7.57;4.20;;;14.90;99.90;;;;;;5045852;28;20082;-60
2021/07/08 02:02:48;;;;;;;11.57;5.28;;;14.90;99.90;;;;;;5044939;28;20022;-62
2021/07/08 02:05:16;;;;;;;10.60;4.40;;;14.80;99.90;;;;;;5043752;28;20696;-63
2021/07/08 02:07:42;;;;;;;10.10;4.57;;;14.80;99.90;;;;;;5030540;28;20024;-61
2021/07/08 02:10:10;;;;;;;12.32;4.47;;;14.80;99.90;;;;;;5055762;28;20035;-60
2021/07/08 02:12:37;;;;;;;11.93;4.53;;;14.70;99.90;;;;;;5040635;28;20075;-60
2021/07/08 02:15:03;;;;;;;11.77;4.57;;;14.70;99.90;;;;;;5046275;28;20509;-60
2021/07/08 02:17:29;;;;;;;7.32;4.47;;;14.70;99.90;;;;;;5044962;28;20544;-62
2021/07/08 02:19:54;;;;;;;9.32;4.43;;;14.80;99.90;;;;;;5045534;28;20028;-61
2021/07/08 02:22:20;;;;;;;18.13;5.20;;;14.80;99.90;;;;;;5045948;28;20060;-61
2021/07/08 02:24:46;;;;;;;7.45;4.38;;;14.80;99.90;;;;;;5048091;28;20843;-61
2021/07/08 02:27:11;;;;;;;8.73;4.57;;;14.80;99.90;;;;;;5027749;28;20048;-60
2021/07/08 02:29:37;;;;;;;13.00;4.53;;;14.80;99.90;;;;;;5034105;28;20051;-61
2021/07/08 02:32:04;;;;;;;6.82;4.82;;;14.70;99.90;;;;;;5058389;28;20390;-60
2021/07/08 02:34:29;;;;;;;8.35;4.30;;;14.70;99.90;;;;;;5047286;28;20029;-60
2021/07/08 02:36:55;;;;;;;8.85;5.70;;;14.70;99.90;;;;;;5047108;28;20028;-62
2021/07/08 02:39:20;;;;;;;8.20;4.20;;;14.70;99.90;;;;;;5047670;28;20036;-61
2021/07/08 02:41:46;;;;;;;7.40;4.28;;;14.60;99.90;;;;;;5047411;28;20481;-60
2021/07/08 02:44:12;;;;;;;7.88;4.18;;;14.60;99.90;;;;;;5047261;28;21074;-62
2021/07/08 02:46:37;;;;;;;14.43;4.30;;;14.60;99.90;;;;;;5045912;28;20021;-60
2021/07/08 02:49:03;;;;;;;13.82;5.63;;;14.60;99.90;;;;;;5030442;28;20402;-60
2021/07/08 02:51:28;;;;;;;8.90;4.05;;;14.60;99.90;;;;;;5045445;28;20126;-60
2021/07/08 02:53:54;;;;;;;11.02;6.13;;;14.50;99.90;;;;;;5057935;28;20029;-59
2021/07/08 02:56:19;;;;;;;10.70;4.32;;;14.50;99.90;;;;;;5059006;28;20419;-62
2021/07/08 02:58:45;;;;;;;8.10;5.00;;;14.50;99.90;;;;;;5047330;28;20025;-60
2021/07/08 03:01:11;;;;;;;8.13;4.90;;;14.40;99.90;;;;;;5050808;28;20033;-61
2021/07/08 03:03:36;;;;;;;8.70;4.13;;;14.40;99.90;;;;;;5048481;28;20029;-60
2021/07/08 03:06:02;;;;;;;11.10;5.60;;;14.40;99.90;;;;;;5047103;28;20083;-58
2021/07/08 03:08:28;;;;;;;8.38;4.47;;;14.40;99.90;;;;;;5048799;28;20392;-61
2021/07/08 03:10:53;;;;;;;11.25;4.90;;;14.40;99.90;;;;;;5030876;28;20115;-60
2021/07/08 03:13:19;;;;;;;12.10;5.10;;;14.40;99.90;;;;;;5048342;28;20060;-59
2021/07/08 03:15:45;;;;;;;7.53;4.43;;;14.40;99.90;;;;;;5047775;28;20065;-61
2021/07/08 03:18:11;;;;;;;8.60;4.68;;;14.40;99.90;;;;;;5045453;28;20047;-62
2021/07/08 03:20:36;;;;;;;7.18;3.78;;;14.50;99.90;;;;;;5047739;28;20397;-59
2021/07/08 03:23:04;;;;;;;6.03;4.03;;;14.50;99.90;;;;;;5027100;28;20032;-62
2021/07/08 03:25:30;;;;;;;9.65;4.93;;;14.50;99.90;;;;;;5054442;28;20037;-59
2021/07/08 03:27:57;;;;;;;11.68;4.63;;;14.50;99.90;;;;;;5045223;28;20037;-61
2021/07/08 03:30:25;;;;;;;8.23;4.25;;;14.50;99.90;;;;;;5030797;28;20188;-59
2021/07/08 03:32:52;;;;;;;9.27;4.75;;;14.50;99.90;;;;;;5046080;28;20028;-61
2021/07/08 03:35:17;;;;;;;11.90;6.20;;;14.50;99.90;;;;;;5046368;28;20025;-60
2021/07/08 03:37:44;;;;;;;11.25;4.10;;;14.40;99.90;;;;;;5049042;28;20040;-61
2021/07/08 03:40:12;;;;;;;9.85;4.43;;;14.40;99.90;;;;;;5045647;28;20047;-59
2021/07/08 03:42:38;;;;;;;12.80;4.97;;;14.50;99.90;;;;;;5047788;28;20120;-61
2021/07/08 03:45:06;;;;;;;11.80;4.75;;;14.50;99.90;;;;;;5049066;28;20522;-61
2021/07/08 03:47:31;;;;;;;10.02;4.18;;;14.50;99.90;;;;;;5055608;28;20580;-61
2021/07/08 03:49:57;;;;;;;7.93;4.05;;;14.50;99.90;;;;;;5047591;28;20090;-59
2021/07/08 03:52:23;;;;;;;9.23;4.63;;;14.50;99.90;;;;;;5046779;28;20033;-60
2021/07/08 03:54:48;;;;;;;8.57;4.20;;;14.50;99.90;;;;;;5047905;28;20516;-60
2021/07/08 03:57:14;;;;;;;12.73;4.35;;;14.50;99.90;;;;;;5051447;28;20044;-58
2021/07/08 03:59:39;;;;;;;9.55;4.10;;;14.50;99.90;;;;;;5046966;28;20427;-60
2021/07/08 04:02:05;;;;;;;9.70;4.40;;;14.50;99.90;;;;;;5050226;28;20056;-60
2021/07/08 04:04:32;;;;;;;8.10;4.07;;;14.50;99.90;;;;;;5060899;28;20037;-60
2021/07/08 04:06:57;;;;;;;7.75;3.50;;;14.60;99.90;;;;;;5031916;28;20078;-60
2021/07/08 04:09:23;;;;;;;4.78;3.95;;;14.60;99.90;;;;;;5050367;28;20033;-61
2021/07/08 04:11:48;;;;;;;12.15;4.18;;;14.70;99.90;;;;;;5051436;28;20048;-60
2021/07/08 04:14:14;;;;;;;9.10;3.65;;;14.80;99.90;;;;;;5048127;28;20029;-61
2021/07/08 04:16:40;;;;;;;9.68;3.70;;;14.90;99.90;;;;;;5050615;28;20140;-60
2021/07/08 04:19:06;;;;;;;8.45;3.67;;;15.00;99.90;;;;;;5044316;28;20036;-61
2021/07/08 04:21:31;;;;;;;9.10;3.42;;;15.10;99.90;;;;;;5050259;28;20026;-60
2021/07/08 04:23:57;;;;;;;7.28;3.45;;;15.20;99.90;;;;;;5046467;28;20032;-60
2021/07/08 04:26:22;;;;;;;12.52;3.60;;;15.30;99.90;;;;;;5053294;28;20082;-62
2021/07/08 04:28:48;;;;;;;9.90;3.70;;;15.30;99.90;;;;;;5049311;28;20052;-60
2021/07/08 04:31:16;;;;;;;7.40;3.53;;;15.20;99.90;;;;;;5035294;28;20056;-62
2021/07/08 04:33:46;;;;;;;8.73;3.72;;;15.10;99.90;;;;;;5049934;28;20044;-60
2021/07/08 04:36:12;;;;;;;12.30;3.78;;;15.10;99.90;;;;;;5048843;28;20064;-60
2021/07/08 04:38:41;;;;;;;8.07;3.42;;;15.10;99.90;;;;;;5048377;28;20017;-59
2021/07/08 04:41:07;;;;;;;7.75;3.65;;;15.10;99.90;;;;;;5047775;28;20061;-60
2021/07/08 04:43:33;;;;;;;7.53;3.92;;;15.00;99.90;;;;;;5029151;28;20018;-61
2021/07/08 04:45:58;;;;;;;5.53;3.72;;;15.00;99.90;;;;;;5049094;28;20043;-61
2021/07/08 04:48:24;;;;;;;8.48;3.83;;;15.00;99.90;;;;;;5049956;28;20040;-62
2021/07/08 04:50:49;;;;;;;16.25;4.60;;;15.00;99.90;;;;;;5030868;28;20116;-60
2021/07/08 04:53:16;;;;;;;11.20;4.00;;;15.00;99.90;;;;;;5050008;28;20031;-61
2021/07/08 04:55:43;;;;;;;6.15;3.70;;;15.00;99.90;;;;;;5048958;28;20451;-62
2021/07/08 04:58:08;;;;;;;8.25;4.25;;;15.10;99.90;;;;;;5032768;28;20029;-62
2021/07/08 05:00:34;;;;;;;7.45;4.43;;;15.10;99.90;;;;;;5054772;28;20024;-61
2021/07/08 05:03:08;;;;;;;9.85;3.70;;;15.20;99.90;;;;;;5053043;28;20064;-62
2021/07/08 05:05:35;;;;;;;5.43;3.45;;;15.20;99.90;;;;;;5026353;28;20037;-61
2021/07/08 05:08:01;;;;;;;8.32;4.22;;;15.30;99.90;;;;;;5046320;28;20021;-62
2021/07/08 05:10:26;;;;;;;11.95;4.45;;;15.30;99.90;;;;;;5049909;28;20029;-62
2021/07/08 05:12:52;;;;;;;6.60;3.70;;;15.20;99.90;;;;;;5050094;28;20033;-59
2021/07/08 05:15:18;;;;;;;7.05;3.75;;;15.30;99.90;;;;;;5049571;28;20025;-61
2021/07/08 05:17:46;;;;;;;9.40;4.07;;;15.20;99.90;;;;;;5041770;28;20021;-60
2021/07/08 05:20:14;;;;;;;4.85;3.45;;;15.30;99.90;;;;;;5048377;28;20092;-60
2021/07/08 05:22:40;;;;;;;9.20;4.68;;;15.40;99.90;;;;;;5048028;28;20470;-60
2021/07/08 05:25:08;;;;;;;13.02;4.60;;;15.40;99.90;;;;;;5050701;28;20052;-60
2021/07/08 05:27:34;;;;;;;9.57;4.15;;;15.50;99.90;;;;;;5050206;28;20498;-62
2021/07/08 05:30:00;;;;;;;10.50;3.60;;;15.60;99.90;;;;;;5045095;28;20030;-59
2021/07/08 05:32:27;;;;;;;7.40;3.83;;;15.70;99.90;;;;;;5034717;28;20052;-59
2021/07/08 05:34:53;;;;;;;6.38;3.80;;;15.70;99.90;;;;;;5046898;28;20105;-61
2021/07/08 05:37:18;;;;;;;9.13;3.78;;;15.80;99.90;;;;;;5056029;28;20096;-61
2021/07/08 05:39:44;;;;;;;3.58;3.00;;;15.90;99.90;;;;;;5050873;28;20036;-61
2021/07/08 05:42:09;;;;;;;8.93;3.85;;;16.00;99.90;;;;;;5049871;28;20028;-61
2021/07/08 05:44:35;;;;;;;11.25;3.47;;;16.10;99.90;;;;;;5048223;28;20110;-60
2021/07/08 05:47:01;;;;;;;10.70;3.63;;;16.20;99.90;;;;;;5045066;28;20044;-62
2021/07/08 05:49:26;;;;;;;8.40;3.80;;;16.30;99.90;;;;;;5044470;28;20037;-62
2021/07/08 05:51:52;;;;;;;7.55;3.78;;;16.40;99.90;;;;;;5047678;28;20028;-62
2021/07/08 05:54:18;;;;;;;4.80;2.92;;;16.40;99.90;;;;;;5050631;28;20182;-61
2021/07/08 05:56:43;;;;;;;8.10;3.60;;;16.50;99.90;;;;;;5044007;28;20098;-62
2021/07/08 05:59:09;;;;;;;5.78;3.72;;;16.70;99.90;;;;;;5049596;28;20472;-61
2021/07/08 06:01:34;;;;;;;7.03;3.50;;;16.80;99.90;;;;;;5049013;28;20029;-60
2021/07/08 06:04:00;;;;;;;8.05;3.60;;;17.10;99.90;;;;;;5053868;28;20489;-62
2021/07/08 06:06:25;;;;;;;10.38;3.33;;;17.20;99.90;;;;;;5029642;28;20111;-62
2021/07/08 06:08:51;;;;;;;8.02;3.45;;;17.50;99.90;;;;;;5048321;28;20051;-61
2021/07/08 06:11:17;;;;;;;10.50;3.30;;;17.70;99.90;;;;;;5044991;28;20033;-61
2021/07/08 06:13:42;;;;;;;6.97;3.35;;;17.70;99.90;;;;;;5049269;28;20900;-61
2021/07/08 06:16:08;;;;;;;5.85;3.38;;;17.90;99.90;;;;;;5046440;28;20112;-62
2021/07/08 06:18:34;;;;;;;9.00;2.90;;;18.10;99.90;;;;;;5045118;28;20037;-61
2021/07/08 06:21:00;;;;;;;9.07;3.38;;;18.10;99.90;;;;;;5044896;28;20482;-61
2021/07/08 06:23:25;;;;;;;7.78;3.47;;;18.10;99.90;;;;;;5054554;28;20040;-60
2021/07/08 06:25:51;;;;;;;13.10;3.33;;;18.20;99.90;;;;;;5044812;28;20536;-59
2021/07/08 06:28:17;;;;;;;6.95;2.97;;;18.40;99.90;;;;;;5042057;28;20033;-61
2021/07/08 06:30:44;;;;;;;8.18;3.25;;;18.70;99.90;;;;;;5046490;28;20102;-61
2021/07/08 06:33:10;;;;;;;8.20;2.72;;;19.30;99.90;;;;;;5035696;28;20041;-61
2021/07/08 06:35:36;;;;;;;3.78;2.17;;;20.80;99.90;;;;;;5033304;28;20086;-62
2021/07/08 06:38:02;;;;;;;7.80;2.47;;;21.90;99.90;;;;;;5048011;28;20029;-61
2021/07/08 06:40:27;;;;;;;15.13;2.75;;;22.70;99.90;;;;;;5049176;28;20029;-62
2021/07/08 06:42:53;;;;;;;6.55;2.95;;;23.40;99.90;;;;;;5045125;28;20444;-61
2021/07/08 06:45:20;;;;;;;5.90;2.42;;;24.00;99.90;;;;;;5048027;28;20021;-61
2021/07/08 06:47:51;;;;;;;8.90;2.42;;;24.60;99.80;;;;;;5044899;28;20021;-62
2021/07/08 06:50:20;;;;;;;7.35;2.00;;;24.00;99.80;;;;;;5048170;28;20057;-63
2021/07/08 06:52:46;;;;;;;7.70;2.75;;;25.10;98.80;;;;;;5042566;28;20035;-62
2021/07/08 06:55:13;;;;;;;6.57;2.45;;;25.40;96.70;;;;;;5048414;28;20032;-62
2021/07/08 06:57:50;;;;;;;4.25;1.85;;;25.60;96.00;;;;;;5047228;28;20730;-62
2021/07/08 07:00:18;;;;;;;6.43;2.00;;;27.80;92.60;;;;;;5045951;28;20032;-62
2021/07/08 07:02:43;;;;;;;5.93;1.95;;;28.50;87.00;;;;;;5046560;28;20113;-62
2021/07/08 07:05:09;;;;;;;7.50;2.30;;;28.20;86.50;;;;;;5047129;28;20545;-62
2021/07/08 07:07:35;;;;;;;8.30;3.03;;;27.50;86.70;;;;;;5047751;28;20837;-63
2021/07/08 07:10:00;;;;;;;7.38;1.98;;;27.10;87.90;;;;;;5030966;28;20032;-62
2021/07/08 07:12:26;;;;;;;5.75;2.28;;;26.50;89.90;;;;;;5047143;28;20041;-62
2021/07/08 07:14:51;;;;;;;6.78;2.83;;;25.80;91.10;;;;;;5045609;28;20059;-63
2021/07/08 07:17:17;;;;;;;7.22;2.55;;;25.30;91.60;;;;;;5043554;28;20104;-62
2021/07/08 07:19:42;;;;;;;7.28;2.53;;;25.10;91.90;;;;;;5047967;28;20033;-60
2021/07/08 07:22:08;;;;;;;5.30;2.13;;;26.30;91.90;;;;;;5049232;28;20050;-62
2021/07/08 07:24:33;;;;;;;5.97;2.00;;;27.50;91.40;;;;;;5054565;28;20085;-61
2021/07/08 07:26:59;;;;;;;8.80;1.80;;;28.80;85.30;;;;;;5047308;28;20025;-63
2021/07/08 07:29:25;;;;;;;15.73;2.47;;;29.60;80.70;;;;;;5046895;28;20104;-63
2021/07/08 07:31:50;;;;;;;6.72;1.73;;;30.20;81.30;;;;;;5035353;28;20067;-63
2021/07/08 07:34:16;;;;;;;6.22;2.30;;;32.60;74.60;;;;;;5052747;28;20103;-63
2021/07/08 07:36:41;;;;;;;3.55;1.73;;;31.80;71.10;;;;;;5052228;28;20115;-62
2021/07/08 07:39:07;;;;;;;3.30;1.90;;;33.10;68.20;;;;;;5051600;28;20036;-63
2021/07/08 07:41:34;;;;;;;3.60;1.55;;;32.80;65.60;;;;;;5044647;28;20037;-63
2021/07/08 07:44:00;;;;;;;5.43;2.10;;;32.00;64.90;;;;;;5049786;28;20040;-63
2021/07/08 07:46:25;;;;;;;8.98;2.20;;;31.00;66.40;;;;;;5062743;28;20012;-63
2021/07/08 07:48:51;;;;;;;8.13;2.45;;;30.50;67.60;;;;;;5049787;28;20029;-63
2021/07/08 07:51:17;;;;;;;2.63;1.40;;;30.30;69.10;;;;;;5052238;28;20037;-63
2021/07/08 07:53:42;;;;;;;5.30;2.22;;;30.30;69.50;;;;;;5053546;28;20040;-62
2021/07/08 07:56:08;;;;;;;7.60;2.10;;;29.60;70.90;;;;;;5048592;28;20025;-63
2021/07/08 07:58:33;;;;;;;6.10;2.00;;;29.80;70.50;;;;;;5051429;28;20100;-62
2021/07/08 08:01:00;;;;;;;7.93;1.75;;;29.50;71.50;;;;;;5033319;28;20029;-63
2021/07/08 08:03:26;;;;;;;6.65;2.22;;;29.00;72.30;;;;;;5049965;28;20033;-62
2021/07/08 08:08:36;;;;;;;7.40;2.35;;;29.20;72.80;;;;;;5043250;28;20133;-63
2021/07/08 08:11:03;;;;;;;8.30;1.92;;;28.90;74.50;;;;;;5057054;28;20068;-63
2021/07/08 08:13:29;;;;;;;4.10;1.80;;;28.50;76.20;;;;;;5033494;28;20122;-62
2021/07/08 08:15:55;;;;;;;6.95;3.13;;;28.50;77.70;;;;;;5051389;28;20027;-64
2021/07/08 08:18:22;;;;;;;10.07;2.22;;;28.50;77.10;;;;;;5050209;28;20033;-63
2021/07/08 08:20:47;;;;;;;6.45;1.77;;;29.20;75.20;;;;;;5044272;28;20044;-63
2021/07/08 08:23:13;;;;;;;10.75;2.15;;;29.90;73.20;;;;;;5045436;28;20033;-63
2021/07/08 08:25:39;;;;;;;5.07;2.10;;;30.60;72.50;;;;;;5047089;28;20103;-62
2021/07/08 08:28:05;;;;;;;7.80;2.50;;;32.10;69.50;;;;;;5048389;28;20099;-63
2021/07/08 08:30:31;;;;;;;5.95;2.05;;;32.30;69.00;;;;;;5047663;28;20051;-62
2021/07/08 08:32:56;;;;;;;6.65;2.17;;;32.70;68.00;;;;;;5031533;28;20044;-61
2021/07/08 08:35:22;;;;;;;5.18;2.08;;;33.50;65.90;;;;;;5048984;28;20029;-61
2021/07/08 08:37:49;;;;;;;5.10;2.28;;;33.10;64.10;;;;;;5048909;28;20021;-61
2021/07/08 08:40:15;;;;;;;3.92;1.90;;;32.50;64.20;;;;;;5050289;28;20032;-61
2021/07/08 08:42:42;;;;;;;4.47;2.22;;;31.80;64.00;;;;;;5047258;28;20025;-60
2021/07/08 08:45:11;;;;;;;7.57;1.65;;;31.70;64.20;;;;;;5050476;28;20021;-61
2021/07/08 08:48:01;;;;;;;5.88;1.80;;;32.10;66.10;;;;;;5048098;28;20128;-62
2021/07/08 08:50:28;;;;;;;4.55;1.77;;;32.90;62.80;;;;;;5049335;28;20017;-61
2021/07/08 08:52:54;;;;;;;5.38;1.73;;;33.00;59.80;;;;;;5052833;28;20017;-61
2021/07/08 08:55:20;;;;;;;5.93;1.77;;;32.40;60.50;;;;;;5048432;28;20509;-63
2021/07/08 08:57:46;;;;;;;5.18;1.70;;;32.20;60.20;;;;;;5053745;28;20035;-63
2021/07/08 09:00:35;;;;;;;7.18;1.60;;;31.10;61.00;;;;;;5049847;28;20031;-62
2021/07/08 09:03:03;;;;;;;3.17;1.77;;;30.60;62.50;;;;;;5005199;28;20486;-64
2021/07/08 09:05:29;;;;;;;5.95;1.77;;;30.80;63.50;;;;;;5047006;28;20515;-61
2021/07/08 09:08:25;;;;;;;7.15;2.10;;;29.50;64.10;;;;;;5049574;28;20453;-62
2021/07/08 09:11:07;;;;;;;4.38;1.50;;;29.70;67.60;;;;;;5038328;28;20032;-63
2021/07/08 09:14:03;;;;;;;9.13;1.95;;;29.50;66.60;;;;;;5053279;28;20961;-63
2021/07/08 09:16:37;;;;;;;3.85;1.60;;;29.30;67.70;;;;;;5042139;28;20042;-63
2021/07/08 09:19:06;;;;;;;7.25;1.70;;;28.90;65.80;;;;;;5044666;28;20037;-63
2021/07/08 09:21:34;;;;;;;3.05;1.50;;;28.70;68.90;;;;;;5045955;28;20422;-63
2021/07/08 09:24:25;;;;;;;4.85;1.67;;;28.90;71.50;;;;;;5046173;28;20028;-62
2021/07/08 09:26:59;;;;;;;8.90;1.67;;;28.40;72.40;;;;;;5044110;28;20429;-63
2021/07/08 09:29:33;;;;;;;5.95;1.75;;;28.00;74.30;;;;;;5041604;28;20033;-63
2021/07/08 09:32:05;;;;;;;5.10;1.90;;;27.70;74.50;;;;;;5040706;28;20104;-63
2021/07/08 09:34:35;;;;;;;4.95;1.85;;;27.70;74.60;;;;;;5047393;28;20041;-62
2021/07/08 09:37:18;;;;;;;6.97;2.22;;;27.70;74.50;;;;;;5038105;28;20032;-62
2021/07/08 09:39:54;;;;;;;6.15;1.95;;;28.00;77.50;;;;;;5035138;28;20027;-63
2021/07/08 09:42:32;;;;;;;7.47;1.67;;;27.80;76.20;;;;;;5036788;28;20091;-63
2021/07/08 09:45:10;;;;;;;4.97;2.03;;;27.50;77.90;;;;;;5039904;28;20032;-63
2021/07/08 09:47:41;;;;;;;7.85;2.25;;;27.40;80.10;;;;;;5035410;28;20079;-63
2021/07/08 09:50:28;;;;;;;4.75;2.00;;;27.20;81.30;;;;;;5036663;28;20127;-63
2021/07/08 09:53:07;;;;;;;5.45;2.00;;;27.30;80.50;;;;;;5010613;28;20037;-61
2021/07/08 09:58:31;;;;;;;7.55;2.20;;;26.80;82.10;;;;;;5043996;28;20159;-61
2021/07/08 10:00:57;;;;;;;5.57;2.20;;;26.70;82.00;;;;;;5035854;28;20040;-59
2021/07/08 10:03:23;;;;;;;7.78;2.20;;;26.50;83.10;;;;;;5040208;28;20028;-62
2021/07/08 10:05:49;;;;;;;7.57;2.55;;;26.30;84.10;;;;;;5035857;28;20055;-62
2021/07/08 10:08:16;;;;;;;4.82;1.80;;;26.20;86.10;;;;;;5037497;28;20168;-62
2021/07/08 10:10:42;;;;;;;8.10;1.98;;;26.30;85.10;;;;;;5019600;28;20022;-61
2021/07/08 10:13:09;;;;;;;4.60;2.10;;;26.30;84.70;;;;;;5042890;28;20036;-62
2021/07/08 10:15:39;;;;;;;10.07;1.85;;;26.10;85.40;;;;;;5040612;28;20036;-61
2021/07/08 10:18:07;;;;;;;10.25;2.42;;;26.00;88.50;;;;;;5030158;28;20013;-62
2021/07/08 10:20:34;;;;;;;8.32;2.60;;;25.80;84.30;;;;;;5025122;28;20021;-62
2021/07/08 10:23:00;;;;;;;5.07;2.10;;;25.80;87.00;;;;;;5049800;28;20033;-61
2021/07/08 10:25:26;;;;;;;4.60;1.90;;;25.40;87.00;;;;;;5040997;28;20110;-62
2021/07/08 10:27:54;;;;;;;5.18;2.15;;;25.30;88.00;;;;;;5041040;28;20075;-62
2021/07/08 10:30:21;;;;;;;8.45;2.40;;;25.30;90.10;;;;;;5048727;28;20013;-62
2021/07/08 10:32:54;;;;;;;6.70;2.47;;;25.30;89.50;;;;;;5034349;28;20040;-62
2021/07/08 10:35:36;;;;;;;;;;;25.40;89.70;;;;;;5055747;28;20021;-62
2021/07/08 10:38:31;;;;;;;7.82;2.45;;;25.40;90.20;;;;;;5054106;28;20360;-62
2021/07/08 10:41:07;;;;;;;7.05;2.25;;;25.30;90.80;;;;;;5056762;28;20035;-62
2021/07/08 10:43:44;;;;;;;3.83;2.30;;;25.30;90.90;;;;;;5052079;28;20162;-62
2021/07/08 10:46:11;;;;;;;7.88;2.22;;;25.10;90.90;;;;;;5053219;28;20036;-62
2021/07/08 10:48:44;;;;;;;7.50;2.35;;;25.00;91.30;;;;;;5029442;28;20391;-61
2021/07/08 10:51:27;;;;;;;9.18;2.40;;;24.90;92.40;;;;;;5060962;28;20033;-63
2021/07/08 10:53:53;;;;;;;5.20;2.75;;;24.80;92.40;;;;;;5049660;28;20033;-61
2021/07/08 10:56:30;;;;;;;7.03;2.40;;;24.70;93.40;;;;;;5049603;28;20033;-62
2021/07/08 10:58:56;;;;;;;11.73;2.58;;;24.60;93.00;;;;;;5055008;28;20151;-61
2021/07/08 11:01:22;;;;;;;7.03;2.58;;;24.50;92.60;;;;;;5055372;28;20502;-63
2021/07/08 11:03:54;;;;;;;9.77;2.63;;;24.40;93.20;;;;;;5052209;28;20538;-62
2021/07/08 11:06:31;;;;;;;6.10;2.40;;;24.30;92.10;;;;;;5052683;28;20414;-60
2021/07/08 11:08:59;;;;;;;4.88;2.58;;;24.40;93.30;;;;;;5025807;28;20049;-60
2021/07/08 11:11:25;;;;;;;8.65;2.40;;;24.60;92.50;;;;;;5033012;28;20040;-62
2021/07/08 11:13:52;;;;;;;7.30;2.40;;;24.70;91.80;;;;;;5037826;28;20044;-62
2021/07/08 11:16:43;;;;;;;6.13;2.40;;;24.80;92.10;;;;;;5008506;28;20502;-61
2021/07/08 11:19:11;;;;;;;5.63;2.30;;;25.10;91.40;;;;;;5043287;28;20021;-60
2021/07/08 11:21:53;;;;;;;10.63;2.40;;;25.30;91.20;;;;;;5054793;28;20482;-63
2021/07/08 11:24:25;;;;;;;10.52;2.13;;;25.40;90.00;;;;;;5061962;28;20048;-62
2021/07/08 11:27:03;;;;;;;10.80;2.47;;;25.60;90.20;;;;;;5049830;28;20036;-63
2021/07/08 11:29:52;;;;;;;6.30;2.28;;;26.00;91.10;;;;;;5048899;28;20104;-63
2021/07/08 11:32:18;;;;;;;6.43;2.67;;;26.50;88.10;;;;;;5053338;28;20029;-62
2021/07/08 11:35:04;;;;;;;7.20;2.13;;;26.50;87.80;;;;;;5021629;28;20502;-62
2021/07/08 11:40:02;;;;;;;4.55;1.95;;;26.20;89.00;;;;;;5053971;28;20083;-63
2021/07/08 11:42:33;;;;;;;6.53;2.03;;;26.20;89.10;;;;;;5055079;28;20025;-63
2021/07/08 11:45:10;;;;;;;6.97;2.33;;;26.50;89.70;;;;;;5047141;28;20477;-63
2021/07/08 11:47:39;;;;;;;4.53;2.10;;;26.40;85.40;;;;;;5049629;28;20032;-61
2021/07/08 11:50:13;;;;;;;8.45;2.70;;;26.40;84.90;;;;;;5055214;28;20092;-62
2021/07/08 11:52:39;;;;;;;6.30;1.90;;;26.30;84.00;;;;;;5058958;28;20020;-63
2021/07/08 11:55:05;;;;;;;6.25;2.05;;;26.30;82.50;;;;;;5056595;28;20413;-62
2021/07/08 11:57:53;;;;;;;3.53;1.90;;;26.20;85.50;;;;;;5057897;28;20029;-62
2021/07/08 12:00:33;;;;;;;4.10;1.73;;;26.40;85.30;;;;;;5053150;28;20108;-62
2021/07/08 12:03:01;;;;;;;7.32;2.22;;;26.30;85.80;;;;;;5048447;28;20040;-62
2021/07/08 12:05:27;;;;;;;6.20;2.72;;;26.30;85.60;;;;;;5046875;28;20108;-63
2021/07/08 12:07:59;;;;;;;4.45;2.08;;;26.30;83.50;;;;;;5050353;28;20568;-63
2021/07/08 12:10:29;;;;;;;5.47;2.10;;;26.30;84.10;;;;;;5045753;28;20029;-62
2021/07/08 12:12:56;;;;;;;5.32;2.30;;;26.50;85.60;;;;;;5047442;28;20053;-63
2021/07/08 12:15:23;;;;;;;5.78;2.28;;;26.50;86.10;;;;;;5051786;28;20028;-62
2021/07/08 12:17:51;;;;;;;7.38;2.30;;;26.20;86.30;;;;;;5055772;28;20057;-63
2021/07/08 12:20:17;;;;;;;11.55;2.03;;;26.20;87.00;;;;;;5058652;28;20029;-63
2021/07/08 12:23:02;;;;;;;4.88;2.13;;;26.10;86.20;;;;;;5053736;28;20113;-62
2021/07/08 12:25:28;;;;;;;10.75;2.15;;;26.10;84.20;;;;;;5049688;28;20032;-62
2021/07/08 12:27:55;;;;;;;6.00;1.80;;;25.90;85.20;;;;;;5052236;28;20104;-62
2021/07/08 12:30:24;;;;;;;4.10;2.08;;;25.70;84.90;;;;;;5031188;28;20029;-63
2021/07/08 12:33:13;;;;;;;3.72;1.73;;;25.40;86.40;;;;;;5047376;28;20025;-62
2021/07/08 12:35:47;;;;;;;6.97;2.00;;;25.30;88.30;;;;;;5029445;28;20131;-63
2021/07/08 12:38:17;;;;;;;5.35;1.85;;;25.10;88.50;;;;;;5054787;28;20044;-63
2021/07/08 12:40:46;;;;;;;7.75;1.80;;;24.90;87.90;;;;;;5055197;28;20111;-63
2021/07/08 12:43:14;;;;;;;3.33;1.80;;;24.90;89.80;;;;;;5058101;28;20025;-62
2021/07/08 12:45:41;;;;;;;4.50;1.80;;;24.80;88.90;;;;;;5039589;28;20025;-62
2021/07/08 12:48:12;;;;;;;6.63;1.95;;;24.80;90.00;;;;;;5064059;28;20474;-62
2021/07/08 12:50:41;;;;;;;7.43;1.83;;;24.50;89.10;;;;;;5056970;28;20744;-62
2021/07/08 12:53:13;;;;;;;6.72;1.75;;;24.40;90.90;;;;;;5052100;28;20128;-62
2021/07/08 12:55:48;;;;;;;7.53;2.30;;;24.30;89.80;;;;;;5061529;28;20031;-62
2021/07/08 12:58:22;;;;;;;4.45;2.05;;;24.20;90.60;;;;;;5038604;28;20028;-62